sensor_id;sensor_type;location;lat;lon;timestamp;P1;durP1;ratioP1;P2;durP2;ratioP2
42094;SDS011;27753;55.724;37.612;2023-08-08T00:02:16;6.40;;;4.25;;
42094;SDS011;27753;55.724;37.612;2023-08-08T00:04:42;10.55;;;5.03;;
42094;SDS011;27753;55.724;37.612;2023-08-08T00:07:08;7.20;;;5.30;;
42094;SDS011;27753;55.724;37.612;2023-08-08T00:09:34;9.90;;;5.25;;
42094;SDS011;27753;55.724;37.612;2023-08-08T00:12:00;6.85;;;4.90;;
42094;SDS011;27753;55.724;37.612;2023-08-08T00:14:26;12.48;;;4.80;;
42094;SDS011;27753;55.724;37.612;2023-08-08T00:16:52;9.25;;;4.43;;
42094;SDS011;27753;55.724;37.612;2023-08-08T00:19:18;7.55;;;4.65;;
42094;SDS011;27753;55.724;37.612;2023-08-08T00:21:44;8.43;;;4.05;;
42094;SDS011;27753;55.724;37.612;2023-08-08T00:24:10;7.25;;;4.53;;
42094;SDS011;27753;55.724;37.612;2023-08-08T00:26:36;8.13;;;4.25;;
42094;SDS011;27753;55.724;37.612;2023-08-08T00:29:01;7.07;;;4.53;;
42094;SDS011;27753;55.724;37.612;2023-08-08T00:31:27;6.70;;;4.55;;
42094;SDS011;27753;55.724;37.612;2023-08-08T00:33:53;8.98;;;4.53;;
42094;SDS011;27753;55.724;37.612;2023-08-08T00:36:19;7.45;;;4.60;;
42094;SDS011;27753;55.724;37.612;2023-08-08T00:38:45;6.63;;;4.72;;
42094;SDS011;27753;55.724;37.612;2023-08-08T00:41:11;8.50;;;4.25;;
42094;SDS011;27753;55.724;37.612;2023-08-08T00:43:37;7.55;;;4.38;;
42094;SDS011;27753;55.724;37.612;2023-08-08T00:46:02;5.75;;;5.13;;
42094;SDS011;27753;55.724;37.612;2023-08-08T00:48:28;6.05;;;4.25;;
42094;SDS011;27753;55.724;37.612;2023-08-08T00:50:55;6.10;;;4.88;;
42094;SDS011;27753;55.724;37.612;2023-08-08T00:53:20;8.80;;;4.18;;
42094;SDS011;27753;55.724;37.612;2023-08-08T00:58:13;7.63;;;4.65;;
42094;SDS011;27753;55.724;37.612;2023-08-08T01:00:41;8.52;;;4.78;;
42094;SDS011;27753;55.724;37.612;2023-08-08T01:03:07;9.80;;;4.90;;
42094;SDS011;27753;55.724;37.612;2023-08-08T01:05:42;9.50;;;4.43;;
42094;SDS011;27753;55.724;37.612;2023-08-08T01:08:12;10.75;;;5.45;;
42094;SDS011;27753;55.724;37.612;2023-08-08T01:10:44;9.85;;;5.32;;
42094;SDS011;27753;55.724;37.612;2023-08-08T01:13:12;5.65;;;5.05;;
42094;SDS011;27753;55.724;37.612;2023-08-08T01:15:43;6.20;;;4.97;;
42094;SDS011;27753;55.724;37.612;2023-08-08T01:18:11;6.97;;;5.65;;
42094;SDS011;27753;55.724;37.612;2023-08-08T01:20:39;12.75;;;5.70;;
42094;SDS011;27753;55.724;37.612;2023-08-08T01:23:10;8.55;;;5.13;;
42094;SDS011;27753;55.724;37.612;2023-08-08T01:25:38;5.93;;;5.25;;
42094;SDS011;27753;55.724;37.612;2023-08-08T01:28:05;7.85;;;4.90;;
42094;SDS011;27753;55.724;37.612;2023-08-08T01:30:32;6.78;;;4.68;;
42094;SDS011;27753;55.724;37.612;2023-08-08T01:32:58;8.32;;;4.95;;
42094;SDS011;27753;55.724;37.612;2023-08-08T01:35:24;9.20;;;4.47;;
42094;SDS011;27753;55.724;37.612;2023-08-08T01:37:54;7.10;;;5.25;;
42094;SDS011;27753;55.724;37.612;2023-08-08T01:40:27;8.63;;;4.85;;
42094;SDS011;27753;55.724;37.612;2023-08-08T01:42:55;6.57;;;4.97;;
42094;SDS011;27753;55.724;37.612;2023-08-08T01:45:21;5.25;;;4.75;;
42094;SDS011;27753;55.724;37.612;2023-08-08T01:47:50;6.25;;;5.38;;
42094;SDS011;27753;55.724;37.612;2023-08-08T01:50:16;7.15;;;4.45;;
42094;SDS011;27753;55.724;37.612;2023-08-08T01:52:42;7.63;;;4.38;;
42094;SDS011;27753;55.724;37.612;2023-08-08T01:55:08;6.97;;;4.90;;
42094;SDS011;27753;55.724;37.612;2023-08-08T01:57:34;6.53;;;5.07;;
42094;SDS011;27753;55.724;37.612;2023-08-08T02:00:00;5.18;;;4.68;;
42094;SDS011;27753;55.724;37.612;2023-08-08T02:02:29;9.63;;;5.13;;
42094;SDS011;27753;55.724;37.612;2023-08-08T02:04:55;6.43;;;4.07;;
42094;SDS011;27753;55.724;37.612;2023-08-08T02:07:21;7.28;;;4.50;;
42094;SDS011;27753;55.724;37.612;2023-08-08T02:09:46;6.50;;;4.43;;
42094;SDS011;27753;55.724;37.612;2023-08-08T02:12:12;6.57;;;5.28;;
42094;SDS011;27753;55.724;37.612;2023-08-08T02:14:38;5.00;;;4.50;;
42094;SDS011;27753;55.724;37.612;2023-08-08T02:17:04;6.28;;;4.57;;
42094;SDS011;27753;55.724;37.612;2023-08-08T02:19:30;5.70;;;4.38;;
42094;SDS011;27753;55.724;37.612;2023-08-08T02:21:56;7.93;;;4.72;;
42094;SDS011;27753;55.724;37.612;2023-08-08T02:24:22;6.57;;;4.32;;
42094;SDS011;27753;55.724;37.612;2023-08-08T02:26:48;6.47;;;4.90;;
42094;SDS011;27753;55.724;37.612;2023-08-08T02:29:13;5.45;;;4.90;;
42094;SDS011;27753;55.724;37.612;2023-08-08T02:31:39;7.82;;;4.47;;
42094;SDS011;27753;55.724;37.612;2023-08-08T02:34:05;10.32;;;4.82;;
42094;SDS011;27753;55.724;37.612;2023-08-08T02:36:31;5.55;;;4.63;;
42094;SDS011;27753;55.724;37.612;2023-08-08T02:38:58;8.60;;;5.50;;
42094;SDS011;27753;55.724;37.612;2023-08-08T02:41:24;10.75;;;5.63;;
42094;SDS011;27753;55.724;37.612;2023-08-08T02:43:50;5.60;;;5.07;;
42094;SDS011;27753;55.724;37.612;2023-08-08T02:46:16;6.97;;;5.07;;
42094;SDS011;27753;55.724;37.612;2023-08-08T02:48:41;8.75;;;5.20;;
42094;SDS011;27753;55.724;37.612;2023-08-08T02:51:07;9.43;;;5.45;;
42094;SDS011;27753;55.724;37.612;2023-08-08T02:53:33;6.63;;;5.70;;
42094;SDS011;27753;55.724;37.612;2023-08-08T02:55:59;5.35;;;4.85;;
42094;SDS011;27753;55.724;37.612;2023-08-08T02:58:25;6.78;;;5.30;;
42094;SDS011;27753;55.724;37.612;2023-08-08T03:00:50;9.30;;;4.72;;
42094;SDS011;27753;55.724;37.612;2023-08-08T03:03:17;14.68;;;5.97;;
42094;SDS011;27753;55.724;37.612;2023-08-08T03:05:44;10.90;;;5.25;;
42094;SDS011;27753;55.724;37.612;2023-08-08T03:08:11;12.02;;;5.95;;
42094;SDS011;27753;55.724;37.612;2023-08-08T03:10:37;8.07;;;5.30;;
42094;SDS011;27753;55.724;37.612;2023-08-08T03:13:02;7.07;;;5.68;;
42094;SDS011;27753;55.724;37.612;2023-08-08T03:15:28;11.57;;;5.47;;
42094;SDS011;27753;55.724;37.612;2023-08-08T03:17:54;10.20;;;5.28;;
42094;SDS011;27753;55.724;37.612;2023-08-08T03:20:20;9.80;;;5.63;;
42094;SDS011;27753;55.724;37.612;2023-08-08T03:22:46;8.27;;;5.13;;
42094;SDS011;27753;55.724;37.612;2023-08-08T03:25:12;11.73;;;5.75;;
42094;SDS011;27753;55.724;37.612;2023-08-08T03:27:38;9.95;;;5.07;;
42094;SDS011;27753;55.724;37.612;2023-08-08T03:30:04;8.25;;;6.32;;
42094;SDS011;27753;55.724;37.612;2023-08-08T03:32:31;11.35;;;5.65;;
42094;SDS011;27753;55.724;37.612;2023-08-08T03:34:56;15.25;;;5.60;;
42094;SDS011;27753;55.724;37.612;2023-08-08T03:37:22;10.57;;;6.07;;
42094;SDS011;27753;55.724;37.612;2023-08-08T03:39:48;9.15;;;5.20;;
42094;SDS011;27753;55.724;37.612;2023-08-08T03:42:14;6.70;;;5.63;;
42094;SDS011;27753;55.724;37.612;2023-08-08T03:44:40;9.55;;;5.88;;
42094;SDS011;27753;55.724;37.612;2023-08-08T03:47:06;10.65;;;6.03;;
42094;SDS011;27753;55.724;37.612;2023-08-08T03:49:32;7.57;;;5.40;;
42094;SDS011;27753;55.724;37.612;2023-08-08T03:51:58;15.20;;;4.82;;
42094;SDS011;27753;55.724;37.612;2023-08-08T03:54:24;7.28;;;5.18;;
42094;SDS011;27753;55.724;37.612;2023-08-08T03:56:50;6.00;;;4.93;;
42094;SDS011;27753;55.724;37.612;2023-08-08T03:59:16;8.77;;;5.03;;
42094;SDS011;27753;55.724;37.612;2023-08-08T04:01:42;7.55;;;5.57;;
42094;SDS011;27753;55.724;37.612;2023-08-08T04:04:07;11.73;;;4.97;;
42094;SDS011;27753;55.724;37.612;2023-08-08T04:06:33;5.93;;;4.97;;
42094;SDS011;27753;55.724;37.612;2023-08-08T04:08:59;7.85;;;5.22;;
42094;SDS011;27753;55.724;37.612;2023-08-08T04:11:26;11.70;;;6.07;;
42094;SDS011;27753;55.724;37.612;2023-08-08T04:13:52;6.20;;;4.85;;
42094;SDS011;27753;55.724;37.612;2023-08-08T04:16:18;9.20;;;5.15;;
42094;SDS011;27753;55.724;37.612;2023-08-08T04:18:45;5.80;;;4.97;;
42094;SDS011;27753;55.724;37.612;2023-08-08T04:21:11;9.25;;;5.55;;
42094;SDS011;27753;55.724;37.612;2023-08-08T04:23:37;10.07;;;6.07;;
42094;SDS011;27753;55.724;37.612;2023-08-08T04:26:02;5.95;;;5.18;;
42094;SDS011;27753;55.724;37.612;2023-08-08T04:28:28;7.03;;;6.15;;
42094;SDS011;27753;55.724;37.612;2023-08-08T04:30:54;8.50;;;5.72;;
42094;SDS011;27753;55.724;37.612;2023-08-08T04:33:20;9.85;;;5.90;;
42094;SDS011;27753;55.724;37.612;2023-08-08T04:35:46;9.63;;;5.97;;
42094;SDS011;27753;55.724;37.612;2023-08-08T04:38:13;10.17;;;5.67;;
42094;SDS011;27753;55.724;37.612;2023-08-08T04:40:42;12.25;;;6.30;;
42094;SDS011;27753;55.724;37.612;2023-08-08T04:43:08;7.68;;;5.55;;
42094;SDS011;27753;55.724;37.612;2023-08-08T04:45:34;6.20;;;5.65;;
42094;SDS011;27753;55.724;37.612;2023-08-08T04:48:00;11.10;;;6.05;;
42094;SDS011;27753;55.724;37.612;2023-08-08T04:50:26;10.27;;;5.88;;
42094;SDS011;27753;55.724;37.612;2023-08-08T04:52:53;11.38;;;6.40;;
42094;SDS011;27753;55.724;37.612;2023-08-08T04:55:19;12.82;;;5.70;;
42094;SDS011;27753;55.724;37.612;2023-08-08T04:57:44;7.57;;;5.28;;
42094;SDS011;27753;55.724;37.612;2023-08-08T05:00:10;9.85;;;5.60;;
42094;SDS011;27753;55.724;37.612;2023-08-08T05:02:37;6.43;;;5.37;;
42094;SDS011;27753;55.724;37.612;2023-08-08T05:05:04;8.88;;;6.90;;
42094;SDS011;27753;55.724;37.612;2023-08-08T05:07:30;9.40;;;6.40;;
42094;SDS011;27753;55.724;37.612;2023-08-08T05:09:56;8.68;;;6.03;;
42094;SDS011;27753;55.724;37.612;2023-08-08T05:12:22;10.35;;;5.75;;
42094;SDS011;27753;55.724;37.612;2023-08-08T05:14:48;15.00;;;6.47;;
42094;SDS011;27753;55.724;37.612;2023-08-08T05:17:14;14.98;;;6.32;;
42094;SDS011;27753;55.724;37.612;2023-08-08T05:19:40;10.55;;;5.88;;
42094;SDS011;27753;55.724;37.612;2023-08-08T05:22:05;10.60;;;6.80;;
42094;SDS011;27753;55.724;37.612;2023-08-08T05:24:31;13.63;;;6.50;;
42094;SDS011;27753;55.724;37.612;2023-08-08T05:26:57;11.65;;;6.57;;
42094;SDS011;27753;55.724;37.612;2023-08-08T05:29:23;10.27;;;6.60;;
42094;SDS011;27753;55.724;37.612;2023-08-08T05:31:49;11.23;;;5.70;;
42094;SDS011;27753;55.724;37.612;2023-08-08T05:34:15;13.93;;;7.22;;
42094;SDS011;27753;55.724;37.612;2023-08-08T05:36:40;12.38;;;6.65;;
42094;SDS011;27753;55.724;37.612;2023-08-08T05:39:06;21.70;;;7.70;;
42094;SDS011;27753;55.724;37.612;2023-08-08T05:41:33;21.27;;;9.65;;
42094;SDS011;27753;55.724;37.612;2023-08-08T05:43:59;13.38;;;7.20;;
42094;SDS011;27753;55.724;37.612;2023-08-08T05:46:24;11.55;;;6.50;;
42094;SDS011;27753;55.724;37.612;2023-08-08T05:48:50;12.85;;;6.13;;
42094;SDS011;27753;55.724;37.612;2023-08-08T05:51:16;11.02;;;6.57;;
42094;SDS011;27753;55.724;37.612;2023-08-08T05:53:42;12.30;;;6.40;;
42094;SDS011;27753;55.724;37.612;2023-08-08T05:56:08;16.70;;;5.93;;
42094;SDS011;27753;55.724;37.612;2023-08-08T05:58:34;10.68;;;6.47;;
42094;SDS011;27753;55.724;37.612;2023-08-08T06:01:02;11.65;;;6.32;;
42094;SDS011;27753;55.724;37.612;2023-08-08T06:03:34;12.27;;;7.28;;
42094;SDS011;27753;55.724;37.612;2023-08-08T06:06:00;8.65;;;6.10;;
42094;SDS011;27753;55.724;37.612;2023-08-08T06:08:26;12.88;;;6.05;;
42094;SDS011;27753;55.724;37.612;2023-08-08T06:10:52;10.48;;;5.53;;
42094;SDS011;27753;55.724;37.612;2023-08-08T06:13:18;11.90;;;5.82;;
42094;SDS011;27753;55.724;37.612;2023-08-08T06:15:44;12.80;;;7.43;;
42094;SDS011;27753;55.724;37.612;2023-08-08T06:18:10;18.90;;;8.63;;
42094;SDS011;27753;55.724;37.612;2023-08-08T06:20:36;11.17;;;7.50;;
42094;SDS011;27753;55.724;37.612;2023-08-08T06:23:03;7.77;;;6.43;;
42094;SDS011;27753;55.724;37.612;2023-08-08T06:25:29;16.52;;;6.95;;
42094;SDS011;27753;55.724;37.612;2023-08-08T06:27:55;14.63;;;7.70;;
42094;SDS011;27753;55.724;37.612;2023-08-08T06:30:21;12.18;;;7.30;;
42094;SDS011;27753;55.724;37.612;2023-08-08T06:32:47;13.00;;;6.43;;
42094;SDS011;27753;55.724;37.612;2023-08-08T06:35:13;16.23;;;8.18;;
42094;SDS011;27753;55.724;37.612;2023-08-08T06:37:42;20.67;;;9.88;;
42094;SDS011;27753;55.724;37.612;2023-08-08T06:40:09;16.83;;;7.13;;
42094;SDS011;27753;55.724;37.612;2023-08-08T06:42:36;8.73;;;7.18;;
42094;SDS011;27753;55.724;37.612;2023-08-08T06:45:02;10.52;;;7.32;;
42094;SDS011;27753;55.724;37.612;2023-08-08T06:47:28;13.90;;;7.63;;
42094;SDS011;27753;55.724;37.612;2023-08-08T06:49:54;16.50;;;7.75;;
42094;SDS011;27753;55.724;37.612;2023-08-08T06:52:21;17.83;;;7.88;;
42094;SDS011;27753;55.724;37.612;2023-08-08T06:54:47;14.40;;;6.97;;
42094;SDS011;27753;55.724;37.612;2023-08-08T06:57:13;14.40;;;6.63;;
42094;SDS011;27753;55.724;37.612;2023-08-08T06:59:39;25.00;;;9.00;;
42094;SDS011;27753;55.724;37.612;2023-08-08T07:04:35;19.90;;;6.90;;
42094;SDS011;27753;55.724;37.612;2023-08-08T07:07:01;20.55;;;7.68;;
42094;SDS011;27753;55.724;37.612;2023-08-08T07:09:29;12.13;;;6.82;;
42094;SDS011;27753;55.724;37.612;2023-08-08T07:11:55;10.50;;;6.03;;
42094;SDS011;27753;55.724;37.612;2023-08-08T07:14:21;21.00;;;8.50;;
42094;SDS011;27753;55.724;37.612;2023-08-08T07:16:47;12.88;;;7.10;;
42094;SDS011;27753;55.724;37.612;2023-08-08T07:19:13;22.95;;;7.57;;
42094;SDS011;27753;55.724;37.612;2023-08-08T07:21:40;10.25;;;7.15;;
42094;SDS011;27753;55.724;37.612;2023-08-08T07:24:06;15.05;;;7.68;;
42094;SDS011;27753;55.724;37.612;2023-08-08T07:26:33;17.27;;;7.13;;
42094;SDS011;27753;55.724;37.612;2023-08-08T07:28:59;16.45;;;10.57;;
42094;SDS011;27753;55.724;37.612;2023-08-08T07:31:31;12.25;;;6.53;;
42094;SDS011;27753;55.724;37.612;2023-08-08T07:33:57;13.02;;;7.32;;
42094;SDS011;27753;55.724;37.612;2023-08-08T07:38:50;12.37;;;8.03;;
42094;SDS011;27753;55.724;37.612;2023-08-08T07:41:16;15.60;;;8.20;;
42094;SDS011;27753;55.724;37.612;2023-08-08T07:43:44;10.77;;;7.28;;
42094;SDS011;27753;55.724;37.612;2023-08-08T07:46:10;8.55;;;7.68;;
42094;SDS011;27753;55.724;37.612;2023-08-08T07:48:36;11.83;;;7.90;;
42094;SDS011;27753;55.724;37.612;2023-08-08T07:51:02;13.27;;;8.07;;
42094;SDS011;27753;55.724;37.612;2023-08-08T07:53:28;14.70;;;8.85;;
42094;SDS011;27753;55.724;37.612;2023-08-08T07:55:54;14.07;;;8.57;;
42094;SDS011;27753;55.724;37.612;2023-08-08T07:58:20;15.20;;;7.90;;
42094;SDS011;27753;55.724;37.612;2023-08-08T08:00:48;10.95;;;9.18;;
42094;SDS011;27753;55.724;37.612;2023-08-08T08:03:14;14.52;;;10.90;;
42094;SDS011;27753;55.724;37.612;2023-08-08T08:05:40;12.75;;;8.57;;
42094;SDS011;27753;55.724;37.612;2023-08-08T08:08:06;10.10;;;8.60;;
42094;SDS011;27753;55.724;37.612;2023-08-08T08:10:33;10.98;;;8.20;;
42094;SDS011;27753;55.724;37.612;2023-08-08T08:13:01;14.80;;;8.07;;
42094;SDS011;27753;55.724;37.612;2023-08-08T08:15:27;13.25;;;8.73;;
42094;SDS011;27753;55.724;37.612;2023-08-08T08:17:53;15.50;;;8.80;;
42094;SDS011;27753;55.724;37.612;2023-08-08T08:20:19;18.98;;;9.85;;
42094;SDS011;27753;55.724;37.612;2023-08-08T08:22:46;25.17;;;10.10;;
42094;SDS011;27753;55.724;37.612;2023-08-08T08:25:12;12.20;;;9.07;;
42094;SDS011;27753;55.724;37.612;2023-08-08T08:27:39;17.40;;;9.93;;
42094;SDS011;27753;55.724;37.612;2023-08-08T08:30:06;11.90;;;9.85;;
42094;SDS011;27753;55.724;37.612;2023-08-08T08:32:36;15.70;;;8.63;;
42094;SDS011;27753;55.724;37.612;2023-08-08T08:35:03;11.27;;;9.30;;
42094;SDS011;27753;55.724;37.612;2023-08-08T08:37:29;17.53;;;10.23;;
42094;SDS011;27753;55.724;37.612;2023-08-08T08:39:55;14.15;;;10.68;;
42094;SDS011;27753;55.724;37.612;2023-08-08T08:42:21;15.35;;;9.57;;
42094;SDS011;27753;55.724;37.612;2023-08-08T08:44:48;18.57;;;11.50;;
42094;SDS011;27753;55.724;37.612;2023-08-08T08:47:17;23.80;;;9.35;;
42094;SDS011;27753;55.724;37.612;2023-08-08T08:49:45;15.00;;;9.65;;
42094;SDS011;27753;55.724;37.612;2023-08-08T08:52:11;21.43;;;9.20;;
42094;SDS011;27753;55.724;37.612;2023-08-08T08:54:37;19.45;;;9.63;;
42094;SDS011;27753;55.724;37.612;2023-08-08T08:57:04;25.90;;;11.00;;
42094;SDS011;27753;55.724;37.612;2023-08-08T08:59:30;17.20;;;9.55;;
42094;SDS011;27753;55.724;37.612;2023-08-08T09:01:56;23.25;;;9.27;;
42094;SDS011;27753;55.724;37.612;2023-08-08T09:04:27;29.77;;;10.38;;
42094;SDS011;27753;55.724;37.612;2023-08-08T09:06:54;15.43;;;12.05;;
42094;SDS011;27753;55.724;37.612;2023-08-08T09:09:21;22.67;;;9.63;;
42094;SDS011;27753;55.724;37.612;2023-08-08T09:11:51;17.85;;;8.73;;
42094;SDS011;27753;55.724;37.612;2023-08-08T09:14:21;19.75;;;9.30;;
42094;SDS011;27753;55.724;37.612;2023-08-08T09:16:49;15.07;;;8.55;;
42094;SDS011;27753;55.724;37.612;2023-08-08T09:19:18;17.95;;;9.00;;
42094;SDS011;27753;55.724;37.612;2023-08-08T09:21:44;13.43;;;8.43;;
42094;SDS011;27753;55.724;37.612;2023-08-08T09:24:10;17.17;;;9.32;;
42094;SDS011;27753;55.724;37.612;2023-08-08T09:26:37;19.48;;;9.65;;
42094;SDS011;27753;55.724;37.612;2023-08-08T09:29:04;12.65;;;9.38;;
42094;SDS011;27753;55.724;37.612;2023-08-08T09:31:30;14.90;;;8.40;;
42094;SDS011;27753;55.724;37.612;2023-08-08T09:33:59;14.20;;;10.07;;
42094;SDS011;27753;55.724;37.612;2023-08-08T09:36:27;13.57;;;9.18;;
42094;SDS011;27753;55.724;37.612;2023-08-08T09:41:20;21.88;;;10.20;;
42094;SDS011;27753;55.724;37.612;2023-08-08T09:43:50;12.85;;;8.95;;
42094;SDS011;27753;55.724;37.612;2023-08-08T09:46:20;17.15;;;11.55;;
42094;SDS011;27753;55.724;37.612;2023-08-08T09:48:48;22.95;;;10.98;;
42094;SDS011;27753;55.724;37.612;2023-08-08T09:51:14;16.60;;;11.02;;
42094;SDS011;27753;55.724;37.612;2023-08-08T09:53:41;19.67;;;9.82;;
42094;SDS011;27753;55.724;37.612;2023-08-08T09:56:09;24.08;;;11.20;;
42094;SDS011;27753;55.724;37.612;2023-08-08T09:58:35;31.80;;;11.13;;
42094;SDS011;27753;55.724;37.612;2023-08-08T10:01:01;20.80;;;11.07;;
42094;SDS011;27753;55.724;37.612;2023-08-08T10:03:29;15.13;;;10.10;;
42094;SDS011;27753;55.724;37.612;2023-08-08T10:05:57;14.02;;;10.52;;
42094;SDS011;27753;55.724;37.612;2023-08-08T10:08:24;21.58;;;10.43;;
42094;SDS011;27753;55.724;37.612;2023-08-08T10:10:50;18.47;;;10.80;;
42094;SDS011;27753;55.724;37.612;2023-08-08T10:13:23;16.90;;;10.20;;
42094;SDS011;27753;55.724;37.612;2023-08-08T10:15:51;16.45;;;9.90;;
42094;SDS011;27753;55.724;37.612;2023-08-08T10:18:18;15.75;;;10.52;;
42094;SDS011;27753;55.724;37.612;2023-08-08T10:20:47;16.50;;;9.85;;
42094;SDS011;27753;55.724;37.612;2023-08-08T10:23:14;15.68;;;10.48;;
42094;SDS011;27753;55.724;37.612;2023-08-08T10:25:45;17.70;;;10.07;;
42094;SDS011;27753;55.724;37.612;2023-08-08T10:28:13;11.38;;;9.93;;
42094;SDS011;27753;55.724;37.612;2023-08-08T10:33:18;21.10;;;11.98;;
42094;SDS011;27753;55.724;37.612;2023-08-08T10:36:03;15.48;;;10.77;;
42094;SDS011;27753;55.724;37.612;2023-08-08T10:38:48;15.85;;;10.85;;
42094;SDS011;27753;55.724;37.612;2023-08-08T10:41:16;15.30;;;11.25;;
42094;SDS011;27753;55.724;37.612;2023-08-08T10:43:56;15.93;;;10.10;;
42094;SDS011;27753;55.724;37.612;2023-08-08T10:46:23;15.88;;;10.73;;
42094;SDS011;27753;55.724;37.612;2023-08-08T10:48:57;16.95;;;9.73;;
42094;SDS011;27753;55.724;37.612;2023-08-08T10:52:02;15.32;;;10.93;;
42094;SDS011;27753;55.724;37.612;2023-08-08T10:54:23;13.63;;;10.52;;
42094;SDS011;27753;55.724;37.612;2023-08-08T10:56:55;14.52;;;10.05;;
42094;SDS011;27753;55.724;37.612;2023-08-08T10:59:26;14.55;;;10.57;;
42094;SDS011;27753;55.724;37.612;2023-08-08T11:02:02;14.80;;;11.40;;
42094;SDS011;27753;55.724;37.612;2023-08-08T11:04:28;16.77;;;10.98;;
42094;SDS011;27753;55.724;37.612;2023-08-08T11:06:55;17.08;;;10.15;;
42094;SDS011;27753;55.724;37.612;2023-08-08T11:09:22;16.50;;;10.70;;
42094;SDS011;27753;55.724;37.612;2023-08-08T11:11:48;25.60;;;17.20;;
42094;SDS011;27753;55.724;37.612;2023-08-08T11:14:15;15.40;;;10.40;;
42094;SDS011;27753;55.724;37.612;2023-08-08T11:16:42;23.20;;;16.77;;
42094;SDS011;27753;55.724;37.612;2023-08-08T11:19:09;21.23;;;12.55;;
42094;SDS011;27753;55.724;37.612;2023-08-08T11:21:39;18.60;;;12.48;;
42094;SDS011;27753;55.724;37.612;2023-08-08T11:24:07;24.15;;;17.23;;
42094;SDS011;27753;55.724;37.612;2023-08-08T11:29:00;19.02;;;15.75;;
42094;SDS011;27753;55.724;37.612;2023-08-08T11:31:28;15.57;;;12.10;;
42094;SDS011;27753;55.724;37.612;2023-08-08T11:33:54;15.90;;;12.13;;
42094;SDS011;27753;55.724;37.612;2023-08-08T11:36:21;23.95;;;11.50;;
42094;SDS011;27753;55.724;37.612;2023-08-08T11:38:47;14.93;;;10.65;;
42094;SDS011;27753;55.724;37.612;2023-08-08T11:41:15;19.13;;;10.60;;
42094;SDS011;27753;55.724;37.612;2023-08-08T11:43:43;17.17;;;10.68;;
42094;SDS011;27753;55.724;37.612;2023-08-08T11:46:13;17.73;;;10.75;;
42094;SDS011;27753;55.724;37.612;2023-08-08T11:48:40;17.65;;;10.80;;
42094;SDS011;27753;55.724;37.612;2023-08-08T11:51:06;20.00;;;11.17;;
42094;SDS011;27753;55.724;37.612;2023-08-08T11:53:33;17.55;;;11.00;;
42094;SDS011;27753;55.724;37.612;2023-08-08T11:56:01;20.38;;;11.73;;
42094;SDS011;27753;55.724;37.612;2023-08-08T11:58:29;22.17;;;12.40;;
42094;SDS011;27753;55.724;37.612;2023-08-08T12:00:57;24.02;;;13.43;;
42094;SDS011;27753;55.724;37.612;2023-08-08T12:03:25;26.38;;;11.77;;
42094;SDS011;27753;55.724;37.612;2023-08-08T12:05:51;20.40;;;14.18;;
42094;SDS011;27753;55.724;37.612;2023-08-08T12:08:18;16.93;;;12.47;;
42094;SDS011;27753;55.724;37.612;2023-08-08T12:10:48;16.08;;;11.88;;
42094;SDS011;27753;55.724;37.612;2023-08-08T12:13:23;15.68;;;13.25;;
42094;SDS011;27753;55.724;37.612;2023-08-08T12:15:52;15.85;;;11.50;;
42094;SDS011;27753;55.724;37.612;2023-08-08T12:20:45;18.97;;;13.13;;
42094;SDS011;27753;55.724;37.612;2023-08-08T12:23:11;25.17;;;14.00;;
42094;SDS011;27753;55.724;37.612;2023-08-08T12:25:38;19.17;;;12.73;;
42094;SDS011;27753;55.724;37.612;2023-08-08T12:28:04;20.88;;;15.32;;
42094;SDS011;27753;55.724;37.612;2023-08-08T12:30:31;23.70;;;13.65;;
42094;SDS011;27753;55.724;37.612;2023-08-08T12:32:57;27.80;;;12.55;;
42094;SDS011;27753;55.724;37.612;2023-08-08T12:35:23;25.48;;;12.50;;
42094;SDS011;27753;55.724;37.612;2023-08-08T12:37:51;19.65;;;13.95;;
42094;SDS011;27753;55.724;37.612;2023-08-08T12:40:17;24.13;;;17.83;;
42094;SDS011;27753;55.724;37.612;2023-08-08T12:42:43;23.17;;;15.00;;
42094;SDS011;27753;55.724;37.612;2023-08-08T12:45:09;19.13;;;13.35;;
42094;SDS011;27753;55.724;37.612;2023-08-08T12:47:38;16.02;;;13.35;;
42094;SDS011;27753;55.724;37.612;2023-08-08T12:50:04;17.92;;;13.63;;
42094;SDS011;27753;55.724;37.612;2023-08-08T12:52:31;15.48;;;12.00;;
42094;SDS011;27753;55.724;37.612;2023-08-08T12:54:57;19.67;;;11.65;;
42094;SDS011;27753;55.724;37.612;2023-08-08T12:57:23;23.63;;;13.02;;
42094;SDS011;27753;55.724;37.612;2023-08-08T12:59:50;16.02;;;11.27;;
42094;SDS011;27753;55.724;37.612;2023-08-08T13:02:16;17.17;;;12.30;;
42094;SDS011;27753;55.724;37.612;2023-08-08T13:04:42;21.20;;;12.63;;
42094;SDS011;27753;55.724;37.612;2023-08-08T13:07:07;17.00;;;11.65;;
42094;SDS011;27753;55.724;37.612;2023-08-08T13:09:34;16.53;;;13.67;;
42094;SDS011;27753;55.724;37.612;2023-08-08T13:12:00;19.55;;;14.25;;
42094;SDS011;27753;55.724;37.612;2023-08-08T13:14:26;19.23;;;13.80;;
42094;SDS011;27753;55.724;37.612;2023-08-08T13:16:51;26.50;;;14.48;;
42094;SDS011;27753;55.724;37.612;2023-08-08T13:19:19;24.48;;;14.23;;
42094;SDS011;27753;55.724;37.612;2023-08-08T13:21:50;21.10;;;14.57;;
42094;SDS011;27753;55.724;37.612;2023-08-08T13:26:42;22.30;;;15.87;;
42094;SDS011;27753;55.724;37.612;2023-08-08T13:29:08;23.42;;;15.80;;
42094;SDS011;27753;55.724;37.612;2023-08-08T13:31:34;17.98;;;14.55;;
42094;SDS011;27753;55.724;37.612;2023-08-08T13:34:00;17.10;;;13.63;;
42094;SDS011;27753;55.724;37.612;2023-08-08T13:36:26;18.85;;;13.95;;
42094;SDS011;27753;55.724;37.612;2023-08-08T13:38:52;15.43;;;11.75;;
42094;SDS011;27753;55.724;37.612;2023-08-08T13:41:18;24.88;;;12.82;;
42094;SDS011;27753;55.724;37.612;2023-08-08T13:43:43;16.70;;;11.90;;
42094;SDS011;27753;55.724;37.612;2023-08-08T13:46:09;19.52;;;12.93;;
42094;SDS011;27753;55.724;37.612;2023-08-08T13:48:35;17.35;;;11.85;;
42094;SDS011;27753;55.724;37.612;2023-08-08T13:51:02;18.33;;;16.42;;
42094;SDS011;27753;55.724;37.612;2023-08-08T13:53:28;20.23;;;16.17;;
42094;SDS011;27753;55.724;37.612;2023-08-08T13:55:54;21.67;;;14.53;;
42094;SDS011;27753;55.724;37.612;2023-08-08T13:58:20;24.58;;;16.35;;
42094;SDS011;27753;55.724;37.612;2023-08-08T14:00:50;15.93;;;12.25;;
42094;SDS011;27753;55.724;37.612;2023-08-08T14:03:16;12.38;;;11.15;;
42094;SDS011;27753;55.724;37.612;2023-08-08T14:05:42;18.13;;;12.83;;
42094;SDS011;27753;55.724;37.612;2023-08-08T14:08:09;16.93;;;11.57;;
42094;SDS011;27753;55.724;37.612;2023-08-08T14:10:35;15.65;;;12.25;;
42094;SDS011;27753;55.724;37.612;2023-08-08T14:13:01;19.65;;;12.43;;
42094;SDS011;27753;55.724;37.612;2023-08-08T14:15:28;16.27;;;12.95;;
42094;SDS011;27753;55.724;37.612;2023-08-08T14:17:54;17.50;;;13.03;;
42094;SDS011;27753;55.724;37.612;2023-08-08T14:20:20;17.67;;;13.35;;
42094;SDS011;27753;55.724;37.612;2023-08-08T14:22:46;22.75;;;13.07;;
42094;SDS011;27753;55.724;37.612;2023-08-08T14:25:12;20.30;;;12.33;;
42094;SDS011;27753;55.724;37.612;2023-08-08T14:27:39;20.10;;;13.02;;
42094;SDS011;27753;55.724;37.612;2023-08-08T14:30:05;18.40;;;12.48;;
42094;SDS011;27753;55.724;37.612;2023-08-08T14:32:31;18.48;;;13.25;;
42094;SDS011;27753;55.724;37.612;2023-08-08T14:34:57;22.85;;;13.13;;
42094;SDS011;27753;55.724;37.612;2023-08-08T14:37:24;17.17;;;12.82;;
42094;SDS011;27753;55.724;37.612;2023-08-08T14:39:50;18.83;;;11.68;;